createdAt,value
2023-03-27T00:01:30.000Z,1006.9
2023-03-27T00:04:15.000Z,1006.9
2023-03-27T00:07:00.000Z,1007
2023-03-27T00:08:17.000Z,1007
2023-03-27T00:09:44.000Z,1007.1
2023-03-27T00:12:29.000Z,1007.1
2023-03-27T00:15:13.000Z,1007.2
2023-03-27T00:17:58.000Z,1007.2
2023-03-27T00:20:43.000Z,1007.3
2023-03-27T00:23:27.000Z,1007.3
2023-03-27T00:28:57.000Z,1007.4
2023-03-27T00:31:41.000Z,1007.5
2023-03-27T00:34:26.000Z,1007.5
2023-03-27T00:35:44.000Z,1007.5
2023-03-27T00:37:11.000Z,1007.6
2023-03-27T00:39:55.000Z,1007.6
2023-03-27T00:42:40.000Z,1007.7
2023-03-27T00:45:24.000Z,1007.7
2023-03-27T00:48:09.000Z,1007.7
2023-03-27T00:50:54.000Z,1007.8
2023-03-27T00:53:38.000Z,1007.8
2023-03-27T00:56:23.000Z,1007.8
2023-03-27T00:59:08.000Z,1007.8
2023-03-27T01:01:52.000Z,1007.9
2023-03-27T01:03:10.000Z,1007.9
2023-03-27T01:04:37.000Z,1008
2023-03-27T01:07:22.000Z,1008
2023-03-27T01:10:06.000Z,1008
2023-03-27T01:12:51.000Z,1008.1
2023-03-27T01:15:36.000Z,1008
2023-03-27T01:18:20.000Z,1008
2023-03-27T01:21:05.000Z,1008
2023-03-27T01:23:49.000Z,1008.1
2023-03-27T01:26:34.000Z,1008.1
2023-03-27T01:29:19.000Z,1008.2
2023-03-27T01:30:37.000Z,1008.2
2023-03-27T01:32:03.895Z,1008.2
2023-03-27T01:34:48.000Z,1008.2
2023-03-27T01:37:33.000Z,1008.2
2023-03-27T01:40:17.000Z,1008.3
2023-03-27T01:43:02.000Z,1008.3
2023-03-27T01:45:47.000Z,1008.3
2023-03-27T01:48:31.000Z,1008.3
2023-03-27T01:51:16.000Z,1008.3
2023-03-27T01:54:01.000Z,1008.3
2023-03-27T01:56:45.000Z,1008.4
2023-03-27T01:58:03.000Z,1008.4
2023-03-27T01:59:30.000Z,1008.4
2023-03-27T02:02:14.000Z,1008.4
2023-03-27T02:04:59.000Z,1008.5
2023-03-27T02:07:44.000Z,1008.5
2023-03-27T02:10:28.000Z,1008.5
2023-03-27T02:13:13.000Z,1008.6
2023-03-27T02:15:58.000Z,1008.7
2023-03-27T02:18:42.000Z,1008.7
2023-03-27T02:21:27.000Z,1008.8
2023-03-27T02:24:12.000Z,1008.8
2023-03-27T02:25:29.000Z,1008.9
2023-03-27T02:26:56.000Z,1008.9
2023-03-27T02:29:41.000Z,1008.9
2023-03-27T02:32:26.000Z,1008.9
2023-03-27T02:35:10.000Z,1008.9
2023-03-27T02:37:55.000Z,1009
2023-03-27T02:40:39.000Z,1009
2023-03-27T02:43:24.000Z,1009.1
2023-03-27T02:46:09.000Z,1009.1
2023-03-27T02:48:53.000Z,1009.1
2023-03-27T02:51:38.000Z,1009.1
2023-03-27T02:52:56.000Z,1009.2
2023-03-27T02:54:23.000Z,1009.2
2023-03-27T02:57:07.000Z,1009.2
2023-03-27T02:59:52.000Z,1009.2
2023-03-27T03:02:37.000Z,1009.3
2023-03-27T03:05:21.000Z,1009.3
2023-03-27T03:08:06.000Z,1009.4
2023-03-27T03:10:50.000Z,1009.4
2023-03-27T03:13:35.000Z,1009.5
2023-03-27T03:16:20.000Z,1009.5
2023-03-27T03:19:04.000Z,1009.5
2023-03-27T03:20:22.000Z,1009.6
2023-03-27T03:21:49.000Z,1009.6
2023-03-27T03:24:34.000Z,1009.6
2023-03-27T03:27:18.000Z,1009.6
2023-03-27T03:30:03.000Z,1009.6
2023-03-27T03:32:48.000Z,1009.6
2023-03-27T03:35:32.000Z,1009.7
2023-03-27T03:38:17.000Z,1009.7
2023-03-27T03:41:02.000Z,1009.8
2023-03-27T03:43:46.000Z,1009.8
2023-03-27T03:46:31.000Z,1009.8
2023-03-27T03:47:49.000Z,1009.9
2023-03-27T03:49:15.000Z,1009.9
2023-03-27T03:52:00.000Z,1009.9
2023-03-27T03:54:45.000Z,1010
2023-03-27T03:57:29.000Z,1010
2023-03-27T04:00:14.000Z,1010
2023-03-27T04:05:43.000Z,1010.1
2023-03-27T04:08:28.000Z,1010.1
2023-03-27T04:11:13.000Z,1010.2
2023-03-27T04:13:57.000Z,1010.3
2023-03-27T04:15:15.000Z,1010.3
2023-03-27T04:16:42.000Z,1010.3
2023-03-27T04:19:27.000Z,1010.3
2023-03-27T04:22:11.000Z,1010.3
2023-03-27T04:24:56.000Z,1010.3
2023-03-27T04:27:40.000Z,1010.3
2023-03-27T04:30:25.000Z,1010.4
2023-03-27T04:33:10.000Z,1010.4
2023-03-27T04:35:54.000Z,1010.5
2023-03-27T04:38:39.000Z,1010.5
2023-03-27T04:41:24.000Z,1010.5
2023-03-27T04:42:42.000Z,1010.5
2023-03-27T04:44:08.000Z,1010.5
2023-03-27T04:46:53.000Z,1010.5
2023-03-27T04:49:38.000Z,1010.5
2023-03-27T04:52:22.000Z,1010.5
2023-03-27T04:55:07.000Z,1010.6
2023-03-27T04:57:52.000Z,1010.6
2023-03-27T05:00:36.000Z,1010.7
2023-03-27T05:03:21.000Z,1010.7
2023-03-27T05:06:05.000Z,1010.7
2023-03-27T05:08:50.000Z,1010.8
2023-03-27T05:10:08.000Z,1010.8
2023-03-27T05:11:35.000Z,1010.8
2023-03-27T05:14:19.000Z,1010.9
2023-03-27T05:17:04.000Z,1010.9
2023-03-27T05:19:49.000Z,1010.9
2023-03-27T05:22:33.000Z,1011
2023-03-27T05:25:18.000Z,1011.1
2023-03-27T05:28:03.000Z,1011.1
2023-03-27T05:30:47.000Z,1011.1
2023-03-27T05:33:32.000Z,1011.1
2023-03-27T05:36:16.000Z,1011.2
2023-03-27T05:37:34.000Z,1011.2
2023-03-27T05:39:01.000Z,1011.3
2023-03-27T05:41:46.000Z,1011.3
2023-03-27T05:44:30.000Z,1011.4
2023-03-27T05:47:15.000Z,1011.4
2023-03-27T05:50:00.000Z,1011.5
2023-03-27T05:52:44.000Z,1011.5
2023-03-27T05:55:29.000Z,1011.4
2023-03-27T05:58:14.000Z,1011.5
2023-03-27T06:00:58.000Z,1011.5
2023-03-27T06:03:43.000Z,1011.5
2023-03-27T06:05:01.000Z,1011.4
2023-03-27T06:06:28.000Z,1011.4
2023-03-27T06:09:12.000Z,1011.4
2023-03-27T06:11:57.000Z,1011.4
2023-03-27T06:14:41.000Z,1011.4
2023-03-27T06:17:26.000Z,1011.4
2023-03-27T06:22:55.000Z,1011.6
2023-03-27T06:25:40.000Z,1011.5
2023-03-27T06:28:25.000Z,1011.6
2023-03-27T06:31:09.000Z,1011.6
2023-03-27T06:32:28.000Z,1011.6
2023-03-27T06:33:54.000Z,1011.6
2023-03-27T06:36:39.000Z,1011.6
2023-03-27T06:39:23.000Z,1011.7
2023-03-27T06:42:08.000Z,1011.7
2023-03-27T06:44:53.000Z,1011.7
2023-03-27T06:47:37.000Z,1011.7
2023-03-27T06:50:22.000Z,1011.7
2023-03-27T06:53:06.000Z,1011.7
2023-03-27T06:55:51.000Z,1011.7
2023-03-27T06:58:36.000Z,1011.7
2023-03-27T07:01:20.000Z,1011.8
2023-03-27T07:02:38.000Z,1011.8
2023-03-27T07:04:05.000Z,1011.8
2023-03-27T07:09:34.000Z,1011.8
2023-03-27T07:15:04.000Z,1012
2023-03-27T07:17:48.000Z,1011.9
2023-03-27T07:20:33.000Z,1012
2023-03-27T07:23:17.000Z,1012
2023-03-27T07:26:02.000Z,1012
2023-03-27T07:28:47.000Z,1012
2023-03-27T07:30:05.000Z,1012.2
2023-03-27T07:31:31.000Z,1012.1
2023-03-27T07:34:16.000Z,1012.1
2023-03-27T07:37:01.000Z,1012.1
2023-03-27T07:39:45.000Z,1012.1
2023-03-27T07:42:30.000Z,1012.1
2023-03-27T07:45:15.000Z,1012.1
2023-03-27T07:47:59.000Z,1012.2
2023-03-27T07:53:29.000Z,1012.2
2023-03-27T07:56:13.000Z,1012.1
2023-03-27T07:57:31.000Z,1012.2
2023-03-27T07:59:14.000Z,1012.1
2023-03-27T08:01:59.000Z,1012.2
2023-03-27T08:04:43.000Z,1012.1
2023-03-27T08:07:28.000Z,1012.2
2023-03-27T08:10:13.000Z,1012.3
2023-03-27T08:12:57.000Z,1012.1
2023-03-27T08:15:42.000Z,1012.1
2023-03-27T08:18:27.000Z,1012.2
2023-03-27T08:21:11.000Z,1012.1
2023-03-27T08:23:56.000Z,1012
2023-03-27T08:25:14.000Z,1012.2
2023-03-27T08:26:57.000Z,1012.2
2023-03-27T08:35:11.000Z,1012.1
2023-03-27T08:40:40.000Z,1012.2
2023-03-27T08:43:25.000Z,1012.3
2023-03-27T08:48:54.000Z,1012.2
2023-03-27T08:51:39.000Z,1012.2
2023-03-27T08:52:56.000Z,1012.1
2023-03-27T08:54:23.000Z,1012.3
2023-03-27T08:57:08.000Z,1012.2
2023-03-27T09:02:37.000Z,1012.3
2023-03-27T09:05:22.000Z,1012.3
2023-03-27T09:08:07.000Z,1012.4
2023-03-27T09:10:51.000Z,1012.4
2023-03-27T09:13:36.000Z,1012.3
2023-03-27T09:16:21.000Z,1012.4
2023-03-27T09:19:22.000Z,1012.4
2023-03-27T09:20:39.000Z,1012.4
2023-03-27T09:22:06.000Z,1012.5
2023-03-27T09:24:51.000Z,1012.4
2023-03-27T09:27:35.000Z,1012.5
2023-03-27T09:33:05.000Z,1012.5
2023-03-27T09:38:34.000Z,1012.5
2023-03-27T09:41:19.000Z,1012.4
2023-03-27T09:44:03.000Z,1012.5
2023-03-27T09:46:48.000Z,1012.5
2023-03-27T09:52:17.000Z,1012.6
2023-03-27T09:58:03.000Z,1012.6
2023-03-27T10:00:48.000Z,1012.6
2023-03-27T10:03:49.000Z,1012.7
2023-03-27T10:06:33.000Z,1012.7
2023-03-27T10:09:18.000Z,1012.6
2023-03-27T10:12:02.000Z,1012.6
2023-03-27T10:14:47.000Z,1012.8
2023-03-27T10:16:05.000Z,1012.8
2023-03-27T10:17:32.000Z,1012.7
2023-03-27T10:20:16.000Z,1012.8
2023-03-27T10:23:01.000Z,1012.7
2023-03-27T10:25:46.000Z,1012.6
2023-03-27T10:28:30.000Z,1012.7
2023-03-27T10:31:31.000Z,1012.7
2023-03-27T10:34:16.000Z,1012.8
2023-03-27T10:37:01.000Z,1012.8
2023-03-27T10:39:45.000Z,1012.7
2023-03-27T10:42:30.000Z,1012.8
2023-03-27T10:45:15.000Z,1012.8
2023-03-27T10:47:59.000Z,1012.8
2023-03-27T10:50:44.000Z,1012.8
2023-03-27T10:53:28.000Z,1012.8
2023-03-27T10:58:58.000Z,1013
2023-03-27T11:01:43.000Z,1013.4
2023-03-27T11:04:43.000Z,1013.4
2023-03-27T11:07:28.000Z,1013.5
2023-03-27T11:10:13.000Z,1013.4
2023-03-27T11:11:30.000Z,1013.3
2023-03-27T11:12:57.000Z,1013.4
2023-03-27T11:15:42.000Z,1013.4
2023-03-27T11:18:27.000Z,1013.3
2023-03-27T11:21:11.000Z,1013.3
2023-03-27T11:23:56.000Z,1013.3
2023-03-27T11:26:41.000Z,1013.2
2023-03-27T11:29:25.000Z,1013.3
2023-03-27T11:32:26.000Z,1013.2
2023-03-27T11:35:11.000Z,1013.2
2023-03-27T11:37:55.000Z,1013.2
2023-03-27T11:39:13.000Z,1013.2
2023-03-27T11:40:40.000Z,1013.2
2023-03-27T11:43:25.000Z,1013.1
2023-03-27T11:46:09.000Z,1013.1
2023-03-27T11:48:54.000Z,1013.2
2023-03-27T11:51:39.000Z,1013.4
2023-03-27T11:57:08.000Z,1013.8
2023-03-27T11:59:53.000Z,1014
2023-03-27T12:02:37.000Z,1014.1
2023-03-27T12:05:22.000Z,1013.9
2023-03-27T12:06:40.000Z,1013.9
2023-03-27T12:08:07.000Z,1013.9
2023-03-27T12:10:51.000Z,1013.9
2023-03-27T12:13:36.000Z,1013.8
2023-03-27T12:16:20.000Z,1013.7
2023-03-27T12:21:50.000Z,1013.7
2023-03-27T12:24:34.000Z,1013.6
2023-03-27T12:27:19.000Z,1013.7
2023-03-27T12:30:04.000Z,1013.6
2023-03-27T12:32:48.000Z,1013.7
2023-03-27T12:34:06.000Z,1013.6
2023-03-27T12:35:33.000Z,1013.6
2023-03-27T12:38:18.000Z,1013.6
2023-03-27T12:41:02.000Z,1013.6
2023-03-27T12:46:31.000Z,1013.6
2023-03-27T12:49:16.000Z,1013.7
2023-03-27T12:54:45.000Z,1013.7
2023-03-27T12:57:30.000Z,1013.7
2023-03-27T13:00:15.000Z,1013.7
2023-03-27T13:01:33.000Z,1013.7
2023-03-27T13:02:59.000Z,1013.7
2023-03-27T13:06:00.000Z,1013.7
2023-03-27T13:11:30.000Z,1013.9
2023-03-27T13:16:59.000Z,1014
2023-03-27T13:19:44.000Z,1014.2
2023-03-27T13:22:28.000Z,1014.4
2023-03-27T13:25:13.000Z,1014.4
2023-03-27T13:27:57.000Z,1014.3
2023-03-27T13:29:15.000Z,1014.3
2023-03-27T13:30:42.000Z,1014.3
2023-03-27T13:33:27.000Z,1014.2
2023-03-27T13:36:11.000Z,1014.2
2023-03-27T13:38:56.000Z,1014.2
2023-03-27T13:41:41.000Z,1014.2
2023-03-27T13:44:25.000Z,1014.2
2023-03-27T13:49:55.000Z,1014.3
2023-03-27T13:52:39.000Z,1014.3
2023-03-27T13:55:24.000Z,1014.2
2023-03-27T13:56:42.000Z,1014.2
2023-03-27T13:58:09.000Z,1014.2
2023-03-27T14:00:53.000Z,1014.2
2023-03-27T14:03:38.000Z,1014.2
2023-03-27T14:09:07.000Z,1014
2023-03-27T14:11:52.000Z,1014
2023-03-27T14:14:36.000Z,1014
2023-03-27T14:17:21.000Z,1014
2023-03-27T14:20:06.000Z,1014.1
2023-03-27T14:24:08.000Z,1014.4
2023-03-27T14:28:20.000Z,1014.4
2023-03-27T14:31:04.000Z,1014.4
2023-03-27T14:33:49.000Z,1014.4
2023-03-27T14:36:33.000Z,1014.4
2023-03-27T14:39:18.000Z,1014.5
2023-03-27T14:42:03.000Z,1014.4
2023-03-27T14:44:47.000Z,1014.4
2023-03-27T14:47:32.000Z,1014.4
2023-03-27T14:50:17.000Z,1014.5
2023-03-27T14:51:34.000Z,1014.6
2023-03-27T14:53:01.000Z,1014.8
2023-03-27T14:55:46.000Z,1014.8
2023-03-27T15:01:32.000Z,1014.8
2023-03-27T15:04:16.000Z,1014.8
2023-03-27T15:07:01.000Z,1014.8
2023-03-27T15:09:46.000Z,1014.8
2023-03-27T15:12:30.000Z,1014.9
2023-03-27T15:15:31.000Z,1014.9
2023-03-27T15:18:16.000Z,1014.7
2023-03-27T15:19:34.000Z,1014.8
2023-03-27T15:21:00.000Z,1014.8
2023-03-27T15:23:45.000Z,1014.9
2023-03-27T15:26:46.000Z,1014.8
2023-03-27T15:29:31.000Z,1014.9
2023-03-27T15:32:15.000Z,1014.9
2023-03-27T15:35:00.000Z,1014.9
2023-03-27T15:37:45.000Z,1014.9
2023-03-27T15:40:29.000Z,1014.8
2023-03-27T15:43:14.000Z,1014.9
2023-03-27T15:45:59.000Z,1014.8
2023-03-27T15:47:16.000Z,1014.9
2023-03-27T15:48:43.000Z,1015
2023-03-27T15:51:28.000Z,1015.1
2023-03-27T15:54:29.000Z,1015
2023-03-27T15:57:14.000Z,1015.1
2023-03-27T15:59:58.000Z,1015.1
2023-03-27T16:02:43.000Z,1015.2
2023-03-27T16:05:28.000Z,1015.2
2023-03-27T16:08:12.000Z,1015.3
2023-03-27T16:10:57.000Z,1015.4
2023-03-27T16:13:41.000Z,1015.4
2023-03-27T16:14:59.000Z,1015.5
2023-03-27T16:16:26.000Z,1015.4
2023-03-27T16:19:11.000Z,1015.5
2023-03-27T16:21:55.000Z,1015.5
2023-03-27T16:24:40.000Z,1015.6
2023-03-27T16:27:25.000Z,1015.6
2023-03-27T16:32:54.000Z,1015.7
2023-03-27T16:38:23.000Z,1015.7
2023-03-27T16:41:08.000Z,1015.8
2023-03-27T16:42:26.000Z,1015.8
2023-03-27T16:44:09.000Z,1015.8
2023-03-27T16:46:53.000Z,1015.8
2023-03-27T16:49:38.000Z,1015.8
2023-03-27T16:52:23.000Z,1016
2023-03-27T16:55:07.000Z,1016
2023-03-27T16:57:52.000Z,1016.1
2023-03-27T17:00:37.000Z,1016.1
2023-03-27T17:03:21.000Z,1016.1
2023-03-27T17:06:06.000Z,1016.1
2023-03-27T17:08:51.000Z,1016
2023-03-27T17:10:09.000Z,1016
2023-03-27T17:11:35.000Z,1016
2023-03-27T17:14:20.000Z,1016
2023-03-27T17:17:05.000Z,1016.1
2023-03-27T17:19:49.000Z,1016.1
2023-03-27T17:22:34.000Z,1016.1
2023-03-27T17:25:18.000Z,1016.2
2023-03-27T17:28:03.000Z,1016.3
2023-03-27T17:30:48.000Z,1016.4
2023-03-27T17:33:32.000Z,1016.4
2023-03-27T17:36:17.000Z,1016.4
2023-03-27T17:39:02.000Z,1016.4
2023-03-27T17:40:19.000Z,1016.5
2023-03-27T17:41:46.000Z,1016.5
2023-03-27T17:44:31.000Z,1016.5
2023-03-27T17:47:16.000Z,1016.6
2023-03-27T17:50:00.000Z,1016.7
2023-03-27T17:52:45.000Z,1016.7
2023-03-27T17:55:29.000Z,1016.7
2023-03-27T17:58:14.000Z,1016.7
2023-03-27T18:00:59.000Z,1016.8
2023-03-27T18:03:43.000Z,1016.8
2023-03-27T18:06:28.000Z,1016.8
2023-03-27T18:07:46.000Z,1016.8
2023-03-27T18:09:13.000Z,1016.9
2023-03-27T18:11:57.000Z,1016.9
2023-03-27T18:14:42.000Z,1016.9
2023-03-27T18:17:27.000Z,1016.9
2023-03-27T18:20:11.000Z,1016.9
2023-03-27T18:22:56.000Z,1016.9
2023-03-27T18:25:41.000Z,1016.9
2023-03-27T18:28:25.000Z,1016.9
2023-03-27T18:31:10.000Z,1016.9
2023-03-27T18:33:54.000Z,1017
2023-03-27T18:35:12.000Z,1017.1
2023-03-27T18:36:39.000Z,1017.1
2023-03-27T18:39:24.000Z,1017.2
2023-03-27T18:42:08.000Z,1017.2
2023-03-27T18:44:53.000Z,1017.2
2023-03-27T18:47:38.000Z,1017.2
2023-03-27T18:50:22.000Z,1017.3
2023-03-27T18:53:07.000Z,1017.3
2023-03-27T18:55:52.000Z,1017.4
2023-03-27T18:58:36.000Z,1017.3
2023-03-27T19:01:21.000Z,1017.4
2023-03-27T19:02:39.000Z,1017.5
2023-03-27T19:04:06.000Z,1017.4
2023-03-27T19:06:50.000Z,1017.5
2023-03-27T19:09:35.000Z,1017.5
2023-03-27T19:12:19.000Z,1017.6
2023-03-27T19:15:04.000Z,1017.5
2023-03-27T19:17:49.000Z,1017.6
2023-03-27T19:20:33.000Z,1017.6
2023-03-27T19:23:18.000Z,1017.7
2023-03-27T19:26:03.000Z,1017.7
2023-03-27T19:28:47.000Z,1017.7
2023-03-27T19:30:05.000Z,1017.7
2023-03-27T19:31:32.000Z,1017.7
2023-03-27T19:34:17.000Z,1017.7
2023-03-27T19:37:01.000Z,1017.6
2023-03-27T19:39:45.000Z,1017.7
2023-03-27T19:41:16.000Z,1017.7
2023-03-27T19:42:46.000Z,1017.7
2023-03-27T19:44:17.000Z,1017.7
2023-03-27T19:45:47.000Z,1017.7
2023-03-27T19:47:18.000Z,1017.7
2023-03-27T19:48:48.000Z,1017.7
2023-03-27T19:50:19.000Z,1017.7
2023-03-27T19:51:49.000Z,1017.7
2023-03-27T19:53:20.000Z,1017.8
2023-03-27T19:54:50.000Z,1017.8
2023-03-27T19:56:21.000Z,1017.8
2023-03-27T19:57:38.000Z,1017.8
2023-03-27T19:58:55.000Z,1017.8
2023-03-27T20:01:56.000Z,1017.8
2023-03-27T20:03:26.000Z,1017.8
2023-03-27T20:04:57.000Z,1017.8
2023-03-27T20:06:27.000Z,1017.8
2023-03-27T20:07:58.000Z,1017.8
2023-03-27T20:09:28.000Z,1017.9
2023-03-27T20:10:59.000Z,1017.9
2023-03-27T20:12:29.000Z,1017.9
2023-03-27T20:13:46.000Z,1017.9
2023-03-27T20:15:03.000Z,1017.9
2023-03-27T20:16:34.000Z,1017.9
2023-03-27T20:18:04.000Z,1017.9
2023-03-27T20:19:35.000Z,1017.9
2023-03-27T20:21:05.000Z,1017.9
2023-03-27T20:22:36.000Z,1018
2023-03-27T20:24:06.000Z,1018
2023-03-27T20:25:37.000Z,1018
2023-03-27T20:27:07.000Z,1018
2023-03-27T20:28:38.000Z,1018
2023-03-27T20:29:55.000Z,1018.1
2023-03-27T20:31:12.000Z,1018.1
2023-03-27T20:32:42.000Z,1018.1
2023-03-27T20:34:13.000Z,1018.1
2023-03-27T20:35:43.000Z,1018.1
2023-03-27T20:37:14.000Z,1018.1
2023-03-27T20:38:44.000Z,1018.1
2023-03-27T20:40:15.000Z,1018.1
2023-03-27T20:41:45.000Z,1018.1
2023-03-27T20:43:16.000Z,1018.1
2023-03-27T20:44:46.000Z,1018.1
2023-03-27T20:46:03.000Z,1018.1
2023-03-27T20:47:20.000Z,1018.1
2023-03-27T20:48:51.000Z,1018.1
2023-03-27T20:50:21.000Z,1018.2
2023-03-27T20:51:52.000Z,1018.2
2023-03-27T20:53:22.000Z,1018.2
2023-03-27T20:54:53.000Z,1018.2
2023-03-27T20:56:23.000Z,1018.2
2023-03-27T20:57:54.000Z,1018.2
2023-03-27T20:59:24.000Z,1018.2
2023-03-27T21:00:55.000Z,1018.2
2023-03-27T21:02:12.000Z,1018.2
2023-03-27T21:03:29.000Z,1018.2
2023-03-27T21:04:59.000Z,1018.2
2023-03-27T21:06:30.000Z,1018.3
2023-03-27T21:08:00.000Z,1018.3
2023-03-27T21:09:31.000Z,1018.3
2023-03-27T21:11:01.000Z,1018.2
2023-03-27T21:12:32.000Z,1018.3
2023-03-27T21:14:02.000Z,1018.2
2023-03-27T21:15:33.000Z,1018.2
2023-03-27T21:17:04.000Z,1018.2
2023-03-27T21:18:20.000Z,1018.2
2023-03-27T21:19:37.000Z,1018.3
2023-03-27T21:21:08.000Z,1018.2
2023-03-27T21:22:38.000Z,1018.2
2023-03-27T21:24:09.000Z,1018.2
2023-03-27T21:25:39.000Z,1018.3
2023-03-27T21:27:10.000Z,1018.3
2023-03-27T21:28:40.000Z,1018.3
2023-03-27T21:30:11.000Z,1018.3
2023-03-27T21:31:41.000Z,1018.4
2023-03-27T21:33:12.000Z,1018.3
2023-03-27T21:34:29.000Z,1018.3
2023-03-27T21:35:46.000Z,1018.4
2023-03-27T21:37:16.000Z,1018.3
2023-03-27T21:40:17.000Z,1018.4
2023-03-27T21:41:48.000Z,1018.4
2023-03-27T21:43:18.000Z,1018.3
2023-03-27T21:44:49.000Z,1018.4
2023-03-27T21:46:19.000Z,1018.4
2023-03-27T21:47:50.000Z,1018.4
2023-03-27T21:49:20.000Z,1018.4
2023-03-27T21:50:37.000Z,1018.4
2023-03-27T21:51:54.000Z,1018.4
2023-03-27T21:53:25.000Z,1018.4
2023-03-27T21:54:55.000Z,1018.4
2023-03-27T21:56:26.000Z,1018.3
2023-03-27T21:57:56.000Z,1018.3
2023-03-27T21:59:35.000Z,1018.4
2023-03-27T22:01:05.000Z,1018.4
2023-03-27T22:02:36.000Z,1018.4
2023-03-27T22:04:06.000Z,1018.4
2023-03-27T22:05:37.000Z,1018.4
2023-03-27T22:06:54.000Z,1018.4
2023-03-27T22:08:11.000Z,1018.4
2023-03-27T22:09:41.000Z,1018.4
2023-03-27T22:12:42.000Z,1018.4
2023-03-27T22:14:13.000Z,1018.4
2023-03-27T22:15:43.000Z,1018.5
2023-03-27T22:17:14.000Z,1018.5
2023-03-27T22:18:44.000Z,1018.4
2023-03-27T22:20:15.000Z,1018.5
2023-03-27T22:21:45.000Z,1018.5
2023-03-27T22:23:02.000Z,1018.5
2023-03-27T22:24:19.000Z,1018.5
2023-03-27T22:25:50.000Z,1018.6
2023-03-27T22:27:20.000Z,1018.6
2023-03-27T22:28:51.000Z,1018.6
2023-03-27T22:30:21.000Z,1018.6
2023-03-27T22:31:52.000Z,1018.7
2023-03-27T22:33:22.000Z,1018.7
2023-03-27T22:34:53.000Z,1018.7
2023-03-27T22:36:24.000Z,1018.7
2023-03-27T22:37:54.000Z,1018.7
2023-03-27T22:39:11.000Z,1018.7
2023-03-27T22:40:28.000Z,1018.7
2023-03-27T22:41:58.000Z,1018.8
2023-03-27T22:43:29.000Z,1018.8
2023-03-27T22:44:59.000Z,1018.7
2023-03-27T22:46:30.000Z,1018.8
2023-03-27T22:48:01.000Z,1018.8
2023-03-27T22:49:31.000Z,1018.8
2023-03-27T22:51:02.000Z,1018.8
2023-03-27T22:52:32.000Z,1018.8
2023-03-27T22:54:03.000Z,1018.9
2023-03-27T22:55:20.000Z,1018.9
2023-03-27T22:56:37.000Z,1018.9
2023-03-27T22:58:07.000Z,1018.9
2023-03-27T23:01:08.000Z,1018.9
2023-03-27T23:02:39.000Z,1018.8
2023-03-27T23:04:09.000Z,1018.8
2023-03-27T23:05:40.000Z,1018.9
2023-03-27T23:07:10.000Z,1018.9
2023-03-27T23:08:41.000Z,1019
2023-03-27T23:10:11.000Z,1019
2023-03-27T23:11:28.000Z,1019
2023-03-27T23:12:45.000Z,1019.1
2023-03-27T23:14:16.000Z,1019
2023-03-27T23:15:46.000Z,1019.1
2023-03-27T23:17:17.000Z,1019.1
2023-03-27T23:18:47.000Z,1019.1
2023-03-27T23:20:18.000Z,1019.1
2023-03-27T23:21:48.000Z,1019.1
2023-03-27T23:23:19.000Z,1019.1
2023-03-27T23:24:49.000Z,1019.1
2023-03-27T23:26:20.000Z,1019.2
2023-03-27T23:27:37.000Z,1019.2
2023-03-27T23:28:54.000Z,1019.2
2023-03-27T23:30:24.000Z,1019.2
2023-03-27T23:31:55.000Z,1019.2
2023-03-27T23:33:25.000Z,1019.2
2023-03-27T23:34:56.000Z,1019.2
2023-03-27T23:36:26.000Z,1019.2
2023-03-27T23:37:57.000Z,1019.2
2023-03-27T23:39:27.000Z,1019.2
2023-03-27T23:40:58.000Z,1019.1
2023-03-27T23:42:28.000Z,1019.2
2023-03-27T23:43:45.000Z,1019.2
2023-03-27T23:45:02.000Z,1019.2
2023-03-27T23:46:32.000Z,1019.2
2023-03-27T23:48:03.000Z,1019.2
2023-03-27T23:49:33.000Z,1019.2
2023-03-27T23:51:04.000Z,1019.3
2023-03-27T23:52:34.000Z,1019.3
2023-03-27T23:54:05.000Z,1019.4
2023-03-27T23:55:35.000Z,1019.4
2023-03-27T23:57:06.000Z,1019.5
2023-03-27T23:58:36.000Z,1019.4
2023-03-27T23:59:53.000Z,1019.4
